sensor_id;sensor_type;location;lat;lon;timestamp;P1;durP1;ratioP1;P2;durP2;ratioP2
23814;SDS011;12088;53.078;8.720;2023-03-20T00:03:52;20.40;;;5.77;;
23814;SDS011;12088;53.078;8.720;2023-03-20T00:06:18;15.13;;;5.47;;
23814;SDS011;12088;53.078;8.720;2023-03-20T00:08:46;15.47;;;4.47;;
23814;SDS011;12088;53.078;8.720;2023-03-20T00:13:59;17.83;;;6.60;;
23814;SDS011;12088;53.078;8.720;2023-03-20T00:16:30;15.90;;;5.83;;
23814;SDS011;12088;53.078;8.720;2023-03-20T00:18:58;13.10;;;5.53;;
23814;SDS011;12088;53.078;8.720;2023-03-20T00:21:23;13.97;;;4.57;;
23814;SDS011;12088;53.078;8.720;2023-03-20T00:23:49;13.93;;;5.67;;
23814;SDS011;12088;53.078;8.720;2023-03-20T00:26:15;16.60;;;6.43;;
23814;SDS011;12088;53.078;8.720;2023-03-20T00:28:45;20.10;;;6.67;;
23814;SDS011;12088;53.078;8.720;2023-03-20T00:31:20;9.47;;;4.23;;
23814;SDS011;12088;53.078;8.720;2023-03-20T00:33:49;15.80;;;6.40;;
23814;SDS011;12088;53.078;8.720;2023-03-20T00:36:15;18.20;;;5.23;;
23814;SDS011;12088;53.078;8.720;2023-03-20T00:38:41;12.20;;;6.13;;
23814;SDS011;12088;53.078;8.720;2023-03-20T00:41:13;17.07;;;5.53;;
23814;SDS011;12088;53.078;8.720;2023-03-20T00:44:02;22.03;;;5.90;;
23814;SDS011;12088;53.078;8.720;2023-03-20T00:46:29;15.50;;;7.23;;
23814;SDS011;12088;53.078;8.720;2023-03-20T00:49:00;19.53;;;5.67;;
23814;SDS011;12088;53.078;8.720;2023-03-20T00:51:25;16.47;;;6.30;;
23814;SDS011;12088;53.078;8.720;2023-03-20T00:53:51;15.63;;;6.33;;
23814;SDS011;12088;53.078;8.720;2023-03-20T00:56:32;20.97;;;5.30;;
23814;SDS011;12088;53.078;8.720;2023-03-20T00:59:00;13.10;;;5.57;;
23814;SDS011;12088;53.078;8.720;2023-03-20T01:01:27;17.47;;;7.13;;
23814;SDS011;12088;53.078;8.720;2023-03-20T01:03:55;19.63;;;7.40;;
23814;SDS011;12088;53.078;8.720;2023-03-20T01:06:20;14.37;;;5.23;;
23814;SDS011;12088;53.078;8.720;2023-03-20T01:08:46;12.60;;;5.27;;
23814;SDS011;12088;53.078;8.720;2023-03-20T01:11:12;15.47;;;6.43;;
23814;SDS011;12088;53.078;8.720;2023-03-20T01:13:39;21.93;;;5.93;;
23814;SDS011;12088;53.078;8.720;2023-03-20T01:16:05;16.60;;;4.67;;
23814;SDS011;12088;53.078;8.720;2023-03-20T01:18:41;25.00;;;6.27;;
23814;SDS011;12088;53.078;8.720;2023-03-20T01:21:07;10.60;;;4.17;;
23814;SDS011;12088;53.078;8.720;2023-03-20T01:23:32;10.93;;;5.57;;
23814;SDS011;12088;53.078;8.720;2023-03-20T01:25:58;12.10;;;4.80;;
23814;SDS011;12088;53.078;8.720;2023-03-20T01:28:24;14.37;;;4.37;;
23814;SDS011;12088;53.078;8.720;2023-03-20T01:30:50;7.03;;;3.30;;
23814;SDS011;12088;53.078;8.720;2023-03-20T01:33:20;7.20;;;3.80;;
23814;SDS011;12088;53.078;8.720;2023-03-20T01:35:48;8.97;;;3.67;;
23814;SDS011;12088;53.078;8.720;2023-03-20T01:43:18;9.77;;;2.23;;
23814;SDS011;12088;53.078;8.720;2023-03-20T01:45:58;5.60;;;2.00;;
23814;SDS011;12088;53.078;8.720;2023-03-20T01:51:25;3.53;;;1.67;;
23814;SDS011;12088;53.078;8.720;2023-03-20T01:53:52;10.37;;;3.40;;
23814;SDS011;12088;53.078;8.720;2023-03-20T01:56:21;4.73;;;2.57;;
23814;SDS011;12088;53.078;8.720;2023-03-20T01:58:47;5.30;;;2.60;;
23814;SDS011;12088;53.078;8.720;2023-03-20T02:01:18;8.07;;;2.23;;
23814;SDS011;12088;53.078;8.720;2023-03-20T02:03:45;5.73;;;2.70;;
23814;SDS011;12088;53.078;8.720;2023-03-20T02:06:13;4.50;;;2.50;;
23814;SDS011;12088;53.078;8.720;2023-03-20T02:08:40;2.93;;;1.70;;
23814;SDS011;12088;53.078;8.720;2023-03-20T02:11:10;3.37;;;1.63;;
23814;SDS011;12088;53.078;8.720;2023-03-20T02:13:37;3.60;;;1.67;;
23814;SDS011;12088;53.078;8.720;2023-03-20T02:16:13;9.30;;;3.40;;
23814;SDS011;12088;53.078;8.720;2023-03-20T02:18:41;5.90;;;2.60;;
23814;SDS011;12088;53.078;8.720;2023-03-20T02:21:22;9.47;;;2.07;;
23814;SDS011;12088;53.078;8.720;2023-03-20T02:40:55;14.77;;;1.97;;
23814;SDS011;12088;53.078;8.720;2023-03-20T02:46:36;3.00;;;1.80;;
23814;SDS011;12088;53.078;8.720;2023-03-20T02:51:55;3.20;;;2.17;;
23814;SDS011;12088;53.078;8.720;2023-03-20T02:57:09;2.33;;;2.03;;
23814;SDS011;12088;53.078;8.720;2023-03-20T03:02:22;3.57;;;1.50;;
23814;SDS011;12088;53.078;8.720;2023-03-20T03:04:57;4.60;;;1.90;;
23814;SDS011;12088;53.078;8.720;2023-03-20T03:07:26;4.37;;;2.40;;
23814;SDS011;12088;53.078;8.720;2023-03-20T03:09:56;3.17;;;1.80;;
23814;SDS011;12088;53.078;8.720;2023-03-20T03:12:27;2.53;;;1.83;;
23814;SDS011;12088;53.078;8.720;2023-03-20T03:14:56;5.03;;;2.10;;
23814;SDS011;12088;53.078;8.720;2023-03-20T03:17:26;2.27;;;1.43;;
23814;SDS011;12088;53.078;8.720;2023-03-20T03:19:54;3.27;;;2.17;;
23814;SDS011;12088;53.078;8.720;2023-03-20T03:22:24;3.60;;;2.57;;
23814;SDS011;12088;53.078;8.720;2023-03-20T03:24:51;3.87;;;2.17;;
23814;SDS011;12088;53.078;8.720;2023-03-20T03:27:19;8.57;;;2.57;;
23814;SDS011;12088;53.078;8.720;2023-03-20T03:29:52;4.83;;;1.93;;
23814;SDS011;12088;53.078;8.720;2023-03-20T03:32:31;5.87;;;2.37;;
23814;SDS011;12088;53.078;8.720;2023-03-20T03:34:59;3.50;;;2.13;;
23814;SDS011;12088;53.078;8.720;2023-03-20T03:37:39;3.90;;;2.17;;
23814;SDS011;12088;53.078;8.720;2023-03-20T03:43:17;7.40;;;3.00;;
23814;SDS011;12088;53.078;8.720;2023-03-20T03:45:54;2.33;;;1.60;;
23814;SDS011;12088;53.078;8.720;2023-03-20T03:48:27;3.57;;;1.77;;
23814;SDS011;12088;53.078;8.720;2023-03-20T03:51:19;5.70;;;2.03;;
23814;SDS011;12088;53.078;8.720;2023-03-20T03:53:48;4.63;;;2.03;;
23814;SDS011;12088;53.078;8.720;2023-03-20T03:56:21;4.17;;;2.53;;
23814;SDS011;12088;53.078;8.720;2023-03-20T03:58:51;4.70;;;2.40;;
23814;SDS011;12088;53.078;8.720;2023-03-20T04:01:20;3.43;;;2.00;;
23814;SDS011;12088;53.078;8.720;2023-03-20T04:03:54;6.47;;;2.63;;
23814;SDS011;12088;53.078;8.720;2023-03-20T04:06:25;4.10;;;2.60;;
23814;SDS011;12088;53.078;8.720;2023-03-20T04:08:51;4.13;;;2.83;;
23814;SDS011;12088;53.078;8.720;2023-03-20T04:11:18;5.73;;;2.73;;
23814;SDS011;12088;53.078;8.720;2023-03-20T04:13:46;5.70;;;2.57;;
23814;SDS011;12088;53.078;8.720;2023-03-20T04:16:13;4.80;;;2.07;;
23814;SDS011;12088;53.078;8.720;2023-03-20T04:18:39;7.43;;;2.63;;
23814;SDS011;12088;53.078;8.720;2023-03-20T04:21:05;5.13;;;2.00;;
23814;SDS011;12088;53.078;8.720;2023-03-20T04:23:31;5.97;;;2.63;;
23814;SDS011;12088;53.078;8.720;2023-03-20T04:25:57;3.60;;;2.43;;
23814;SDS011;12088;53.078;8.720;2023-03-20T04:28:23;4.33;;;2.27;;
23814;SDS011;12088;53.078;8.720;2023-03-20T04:30:56;9.40;;;2.87;;
23814;SDS011;12088;53.078;8.720;2023-03-20T04:33:23;6.23;;;2.80;;
23814;SDS011;12088;53.078;8.720;2023-03-20T04:35:50;6.57;;;3.73;;
23814;SDS011;12088;53.078;8.720;2023-03-20T04:38:16;9.70;;;2.07;;
23814;SDS011;12088;53.078;8.720;2023-03-20T04:40:43;3.57;;;1.80;;
23814;SDS011;12088;53.078;8.720;2023-03-20T04:43:10;9.40;;;2.77;;
23814;SDS011;12088;53.078;8.720;2023-03-20T04:45:36;4.70;;;2.30;;
23814;SDS011;12088;53.078;8.720;2023-03-20T04:48:01;3.57;;;2.40;;
23814;SDS011;12088;53.078;8.720;2023-03-20T04:50:27;5.47;;;2.30;;
23814;SDS011;12088;53.078;8.720;2023-03-20T04:52:52;7.20;;;3.40;;
23814;SDS011;12088;53.078;8.720;2023-03-20T04:55:18;3.97;;;1.80;;
23814;SDS011;12088;53.078;8.720;2023-03-20T04:57:43;4.23;;;2.43;;
23814;SDS011;12088;53.078;8.720;2023-03-20T05:00:09;6.50;;;3.07;;
23814;SDS011;12088;53.078;8.720;2023-03-20T05:02:35;4.37;;;2.77;;
23814;SDS011;12088;53.078;8.720;2023-03-20T05:05:01;6.60;;;3.70;;
23814;SDS011;12088;53.078;8.720;2023-03-20T05:07:26;4.60;;;2.77;;
23814;SDS011;12088;53.078;8.720;2023-03-20T05:09:52;10.33;;;3.63;;
23814;SDS011;12088;53.078;8.720;2023-03-20T05:12:17;7.20;;;3.87;;
23814;SDS011;12088;53.078;8.720;2023-03-20T05:14:43;6.60;;;3.53;;
23814;SDS011;12088;53.078;8.720;2023-03-20T05:17:08;5.50;;;3.03;;
23814;SDS011;12088;53.078;8.720;2023-03-20T05:19:34;3.97;;;2.57;;
23814;SDS011;12088;53.078;8.720;2023-03-20T05:21:59;4.77;;;2.20;;
23814;SDS011;12088;53.078;8.720;2023-03-20T05:24:25;5.60;;;2.63;;
23814;SDS011;12088;53.078;8.720;2023-03-20T05:26:52;5.13;;;3.10;;
23814;SDS011;12088;53.078;8.720;2023-03-20T05:29:18;3.73;;;2.37;;
23814;SDS011;12088;53.078;8.720;2023-03-20T05:31:44;4.40;;;2.73;;
23814;SDS011;12088;53.078;8.720;2023-03-20T05:34:10;5.60;;;3.13;;
23814;SDS011;12088;53.078;8.720;2023-03-20T05:36:36;6.80;;;2.90;;
23814;SDS011;12088;53.078;8.720;2023-03-20T05:39:01;5.83;;;2.80;;
23814;SDS011;12088;53.078;8.720;2023-03-20T05:41:27;4.67;;;2.00;;
23814;SDS011;12088;53.078;8.720;2023-03-20T05:43:52;9.40;;;2.87;;
23814;SDS011;12088;53.078;8.720;2023-03-20T05:46:18;4.47;;;2.70;;
23814;SDS011;12088;53.078;8.720;2023-03-20T05:48:43;8.23;;;3.60;;
23814;SDS011;12088;53.078;8.720;2023-03-20T05:51:09;7.00;;;3.80;;
23814;SDS011;12088;53.078;8.720;2023-03-20T05:53:34;6.13;;;3.20;;
23814;SDS011;12088;53.078;8.720;2023-03-20T05:56:00;6.57;;;3.00;;
23814;SDS011;12088;53.078;8.720;2023-03-20T05:58:25;6.83;;;2.93;;
23814;SDS011;12088;53.078;8.720;2023-03-20T06:00:51;7.07;;;3.03;;
23814;SDS011;12088;53.078;8.720;2023-03-20T06:03:16;8.47;;;3.53;;
23814;SDS011;12088;53.078;8.720;2023-03-20T06:05:42;6.50;;;2.23;;
23814;SDS011;12088;53.078;8.720;2023-03-20T06:08:08;3.40;;;2.17;;
23814;SDS011;12088;53.078;8.720;2023-03-20T06:10:33;6.27;;;2.60;;
23814;SDS011;12088;53.078;8.720;2023-03-20T06:12:59;3.23;;;2.20;;
23814;SDS011;12088;53.078;8.720;2023-03-20T06:15:25;4.87;;;2.77;;
23814;SDS011;12088;53.078;8.720;2023-03-20T06:17:52;7.20;;;2.50;;
23814;SDS011;12088;53.078;8.720;2023-03-20T06:20:19;8.50;;;3.87;;
23814;SDS011;12088;53.078;8.720;2023-03-20T06:22:45;5.83;;;2.70;;
23814;SDS011;12088;53.078;8.720;2023-03-20T06:25:10;4.37;;;2.77;;
23814;SDS011;12088;53.078;8.720;2023-03-20T06:27:36;4.83;;;2.73;;
23814;SDS011;12088;53.078;8.720;2023-03-20T06:30:02;6.30;;;2.53;;
23814;SDS011;12088;53.078;8.720;2023-03-20T06:32:28;6.47;;;2.60;;
23814;SDS011;12088;53.078;8.720;2023-03-20T06:34:53;15.03;;;3.13;;
23814;SDS011;12088;53.078;8.720;2023-03-20T06:37:19;5.00;;;2.53;;
23814;SDS011;12088;53.078;8.720;2023-03-20T06:39:44;4.77;;;3.30;;
23814;SDS011;12088;53.078;8.720;2023-03-20T06:42:10;5.70;;;3.60;;
23814;SDS011;12088;53.078;8.720;2023-03-20T06:44:36;5.73;;;3.33;;
23814;SDS011;12088;53.078;8.720;2023-03-20T06:47:02;4.20;;;2.33;;
23814;SDS011;12088;53.078;8.720;2023-03-20T06:49:28;9.30;;;2.93;;
23814;SDS011;12088;53.078;8.720;2023-03-20T06:51:53;5.90;;;2.47;;
23814;SDS011;12088;53.078;8.720;2023-03-20T06:54:18;4.30;;;2.70;;
23814;SDS011;12088;53.078;8.720;2023-03-20T06:56:44;8.53;;;2.57;;
23814;SDS011;12088;53.078;8.720;2023-03-20T06:59:10;16.77;;;3.47;;
23814;SDS011;12088;53.078;8.720;2023-03-20T07:01:36;12.50;;;3.67;;
23814;SDS011;12088;53.078;8.720;2023-03-20T07:04:01;3.90;;;2.30;;
23814;SDS011;12088;53.078;8.720;2023-03-20T07:06:26;5.63;;;2.33;;
23814;SDS011;12088;53.078;8.720;2023-03-20T07:08:52;8.43;;;4.00;;
23814;SDS011;12088;53.078;8.720;2023-03-20T07:11:17;11.70;;;3.73;;
23814;SDS011;12088;53.078;8.720;2023-03-20T07:13:43;8.40;;;3.23;;
23814;SDS011;12088;53.078;8.720;2023-03-20T07:16:09;9.13;;;3.20;;
23814;SDS011;12088;53.078;8.720;2023-03-20T07:18:35;3.90;;;2.17;;
23814;SDS011;12088;53.078;8.720;2023-03-20T07:21:02;4.77;;;2.40;;
23814;SDS011;12088;53.078;8.720;2023-03-20T07:23:29;5.30;;;2.37;;
23814;SDS011;12088;53.078;8.720;2023-03-20T07:25:55;6.57;;;3.90;;
23814;SDS011;12088;53.078;8.720;2023-03-20T07:28:21;6.37;;;3.00;;
23814;SDS011;12088;53.078;8.720;2023-03-20T07:30:47;5.80;;;2.20;;
23814;SDS011;12088;53.078;8.720;2023-03-20T07:33:13;6.80;;;3.53;;
23814;SDS011;12088;53.078;8.720;2023-03-20T07:35:39;6.30;;;2.13;;
23814;SDS011;12088;53.078;8.720;2023-03-20T07:38:05;5.73;;;2.73;;
23814;SDS011;12088;53.078;8.720;2023-03-20T07:40:31;8.30;;;2.93;;
23814;SDS011;12088;53.078;8.720;2023-03-20T07:42:56;12.20;;;3.20;;
23814;SDS011;12088;53.078;8.720;2023-03-20T07:45:22;7.40;;;2.53;;
23814;SDS011;12088;53.078;8.720;2023-03-20T07:47:48;4.47;;;2.83;;
23814;SDS011;12088;53.078;8.720;2023-03-20T07:50:14;4.43;;;2.90;;
23814;SDS011;12088;53.078;8.720;2023-03-20T07:52:39;4.67;;;2.87;;
23814;SDS011;12088;53.078;8.720;2023-03-20T07:55:05;7.17;;;2.97;;
23814;SDS011;12088;53.078;8.720;2023-03-20T07:57:31;6.17;;;2.90;;
23814;SDS011;12088;53.078;8.720;2023-03-20T07:59:57;10.23;;;2.73;;
23814;SDS011;12088;53.078;8.720;2023-03-20T08:02:22;7.03;;;3.50;;
23814;SDS011;12088;53.078;8.720;2023-03-20T08:04:48;4.60;;;2.47;;
23814;SDS011;12088;53.078;8.720;2023-03-20T08:07:14;4.70;;;2.63;;
23814;SDS011;12088;53.078;8.720;2023-03-20T08:09:40;9.73;;;3.93;;
23814;SDS011;12088;53.078;8.720;2023-03-20T08:12:05;9.87;;;3.60;;
23814;SDS011;12088;53.078;8.720;2023-03-20T08:14:31;7.77;;;2.67;;
23814;SDS011;12088;53.078;8.720;2023-03-20T08:16:57;4.07;;;2.50;;
23814;SDS011;12088;53.078;8.720;2023-03-20T08:19:22;9.53;;;4.17;;
23814;SDS011;12088;53.078;8.720;2023-03-20T08:21:48;5.17;;;2.83;;
23814;SDS011;12088;53.078;8.720;2023-03-20T08:24:14;6.93;;;2.57;;
23814;SDS011;12088;53.078;8.720;2023-03-20T08:26:39;6.23;;;3.20;;
23814;SDS011;12088;53.078;8.720;2023-03-20T08:29:05;12.77;;;3.07;;
23814;SDS011;12088;53.078;8.720;2023-03-20T08:31:31;6.00;;;2.77;;
23814;SDS011;12088;53.078;8.720;2023-03-20T08:33:56;7.17;;;3.33;;
23814;SDS011;12088;53.078;8.720;2023-03-20T08:36:23;7.73;;;3.23;;
23814;SDS011;12088;53.078;8.720;2023-03-20T08:38:48;4.77;;;2.70;;
23814;SDS011;12088;53.078;8.720;2023-03-20T08:41:14;4.70;;;2.77;;
23814;SDS011;12088;53.078;8.720;2023-03-20T08:43:41;4.07;;;2.93;;
23814;SDS011;12088;53.078;8.720;2023-03-20T08:46:07;15.63;;;3.80;;
23814;SDS011;12088;53.078;8.720;2023-03-20T08:48:33;9.20;;;2.90;;
23814;SDS011;12088;53.078;8.720;2023-03-20T08:50:59;4.87;;;2.53;;
23814;SDS011;12088;53.078;8.720;2023-03-20T08:53:25;3.37;;;2.33;;
23814;SDS011;12088;53.078;8.720;2023-03-20T08:55:51;4.53;;;2.50;;
23814;SDS011;12088;53.078;8.720;2023-03-20T08:58:18;4.00;;;2.13;;
23814;SDS011;12088;53.078;8.720;2023-03-20T09:00:44;3.30;;;2.10;;
23814;SDS011;12088;53.078;8.720;2023-03-20T09:03:11;3.73;;;2.67;;
23814;SDS011;12088;53.078;8.720;2023-03-20T09:05:38;2.50;;;1.97;;
23814;SDS011;12088;53.078;8.720;2023-03-20T09:08:04;3.77;;;2.03;;
23814;SDS011;12088;53.078;8.720;2023-03-20T09:10:30;4.27;;;2.30;;
23814;SDS011;12088;53.078;8.720;2023-03-20T09:12:56;5.10;;;2.83;;
23814;SDS011;12088;53.078;8.720;2023-03-20T09:15:21;6.77;;;2.70;;
23814;SDS011;12088;53.078;8.720;2023-03-20T09:17:47;3.40;;;1.93;;
23814;SDS011;12088;53.078;8.720;2023-03-20T09:20:12;6.33;;;2.97;;
23814;SDS011;12088;53.078;8.720;2023-03-20T09:22:38;6.57;;;2.80;;
23814;SDS011;12088;53.078;8.720;2023-03-20T09:25:05;2.60;;;2.10;;
23814;SDS011;12088;53.078;8.720;2023-03-20T09:27:31;3.90;;;2.50;;
23814;SDS011;12088;53.078;8.720;2023-03-20T09:29:57;2.77;;;2.47;;
23814;SDS011;12088;53.078;8.720;2023-03-20T09:32:22;5.03;;;3.03;;
23814;SDS011;12088;53.078;8.720;2023-03-20T09:34:47;7.50;;;3.53;;
23814;SDS011;12088;53.078;8.720;2023-03-20T09:37:13;2.80;;;2.47;;
23814;SDS011;12088;53.078;8.720;2023-03-20T09:39:38;6.17;;;2.83;;
23814;SDS011;12088;53.078;8.720;2023-03-20T09:45:11;3.60;;;2.30;;
23814;SDS011;12088;53.078;8.720;2023-03-20T09:47:48;4.73;;;1.97;;
23814;SDS011;12088;53.078;8.720;2023-03-20T09:50:27;6.47;;;2.57;;
23814;SDS011;12088;53.078;8.720;2023-03-20T09:55:35;6.60;;;2.80;;
23814;SDS011;12088;53.078;8.720;2023-03-20T09:58:13;3.63;;;2.03;;
23814;SDS011;12088;53.078;8.720;2023-03-20T10:00:45;5.47;;;1.90;;
23814;SDS011;12088;53.078;8.720;2023-03-20T10:03:19;4.70;;;2.47;;
23814;SDS011;12088;53.078;8.720;2023-03-20T10:05:56;8.43;;;3.57;;
23814;SDS011;12088;53.078;8.720;2023-03-20T10:08:37;5.57;;;2.17;;
23814;SDS011;12088;53.078;8.720;2023-03-20T10:11:05;5.57;;;2.47;;
23814;SDS011;12088;53.078;8.720;2023-03-20T10:13:45;3.27;;;1.30;;
23814;SDS011;12088;53.078;8.720;2023-03-20T10:19:14;2.87;;;1.77;;
23814;SDS011;12088;53.078;8.720;2023-03-20T10:32:56;3.40;;;2.40;;
23814;SDS011;12088;53.078;8.720;2023-03-20T10:35:34;5.80;;;1.67;;
23814;SDS011;12088;53.078;8.720;2023-03-20T10:41:14;7.67;;;2.27;;
23814;SDS011;12088;53.078;8.720;2023-03-20T10:43:42;3.27;;;1.87;;
23814;SDS011;12088;53.078;8.720;2023-03-20T10:46:10;2.83;;;1.47;;
23814;SDS011;12088;53.078;8.720;2023-03-20T10:49:00;4.77;;;1.80;;
23814;SDS011;12088;53.078;8.720;2023-03-20T10:51:46;2.63;;;1.77;;
23814;SDS011;12088;53.078;8.720;2023-03-20T10:54:23;4.87;;;1.73;;
23814;SDS011;12088;53.078;8.720;2023-03-20T10:56:52;6.17;;;1.53;;
23814;SDS011;12088;53.078;8.720;2023-03-20T10:59:22;5.30;;;2.33;;
23814;SDS011;12088;53.078;8.720;2023-03-20T11:01:52;3.13;;;1.60;;
23814;SDS011;12088;53.078;8.720;2023-03-20T11:04:18;2.00;;;1.63;;
23814;SDS011;12088;53.078;8.720;2023-03-20T11:06:46;4.73;;;1.67;;
23814;SDS011;12088;53.078;8.720;2023-03-20T11:09:32;2.73;;;1.80;;
23814;SDS011;12088;53.078;8.720;2023-03-20T11:11:58;1.87;;;1.40;;
23814;SDS011;12088;53.078;8.720;2023-03-20T11:14:36;3.80;;;2.10;;
23814;SDS011;12088;53.078;8.720;2023-03-20T11:17:04;5.07;;;1.40;;
23814;SDS011;12088;53.078;8.720;2023-03-20T11:19:34;2.70;;;1.67;;
23814;SDS011;12088;53.078;8.720;2023-03-20T11:24:45;2.13;;;1.40;;
23814;SDS011;12088;53.078;8.720;2023-03-20T11:27:18;3.03;;;1.83;;
23814;SDS011;12088;53.078;8.720;2023-03-20T11:29:49;3.87;;;2.10;;
23814;SDS011;12088;53.078;8.720;2023-03-20T11:34:54;5.63;;;1.73;;
23814;SDS011;12088;53.078;8.720;2023-03-20T11:37:23;3.63;;;1.70;;
23814;SDS011;12088;53.078;8.720;2023-03-20T11:39:57;3.63;;;1.87;;
23814;SDS011;12088;53.078;8.720;2023-03-20T11:42:28;1.50;;;1.40;;
23814;SDS011;12088;53.078;8.720;2023-03-20T11:45:02;3.00;;;1.80;;
23814;SDS011;12088;53.078;8.720;2023-03-20T11:47:33;3.83;;;1.97;;
23814;SDS011;12088;53.078;8.720;2023-03-20T11:50:00;2.13;;;1.77;;
23814;SDS011;12088;53.078;8.720;2023-03-20T11:52:32;4.27;;;2.33;;
23814;SDS011;12088;53.078;8.720;2023-03-20T11:55:04;4.67;;;1.70;;
23814;SDS011;12088;53.078;8.720;2023-03-20T11:57:48;2.40;;;1.93;;
23814;SDS011;12088;53.078;8.720;2023-03-20T12:00:22;4.33;;;1.60;;
23814;SDS011;12088;53.078;8.720;2023-03-20T12:02:49;2.47;;;1.67;;
23814;SDS011;12088;53.078;8.720;2023-03-20T12:08:05;2.40;;;1.67;;
23814;SDS011;12088;53.078;8.720;2023-03-20T12:10:38;3.80;;;2.30;;
23814;SDS011;12088;53.078;8.720;2023-03-20T12:13:12;2.60;;;2.00;;
23814;SDS011;12088;53.078;8.720;2023-03-20T12:15:46;4.10;;;1.90;;
23814;SDS011;12088;53.078;8.720;2023-03-20T12:23:50;2.80;;;1.83;;
23814;SDS011;12088;53.078;8.720;2023-03-20T12:26:31;4.40;;;2.23;;
23814;SDS011;12088;53.078;8.720;2023-03-20T12:29:21;3.60;;;1.80;;
23814;SDS011;12088;53.078;8.720;2023-03-20T12:32:07;2.00;;;1.80;;
23814;SDS011;12088;53.078;8.720;2023-03-20T12:34:41;2.97;;;1.97;;
23814;SDS011;12088;53.078;8.720;2023-03-20T12:37:11;3.13;;;2.37;;
23814;SDS011;12088;53.078;8.720;2023-03-20T12:39:43;3.97;;;2.27;;
23814;SDS011;12088;53.078;8.720;2023-03-20T12:44:54;3.63;;;2.13;;
23814;SDS011;12088;53.078;8.720;2023-03-20T12:50:35;7.07;;;2.03;;
23814;SDS011;12088;53.078;8.720;2023-03-20T12:53:24;4.10;;;2.03;;
23814;SDS011;12088;53.078;8.720;2023-03-20T12:58:29;2.70;;;1.70;;
23814;SDS011;12088;53.078;8.720;2023-03-20T13:01:07;5.03;;;2.50;;
23814;SDS011;12088;53.078;8.720;2023-03-20T13:03:40;4.43;;;2.40;;
23814;SDS011;12088;53.078;8.720;2023-03-20T13:06:18;2.60;;;2.40;;
23814;SDS011;12088;53.078;8.720;2023-03-20T13:16:15;4.53;;;2.27;;
23814;SDS011;12088;53.078;8.720;2023-03-20T13:18:56;4.07;;;2.47;;
23814;SDS011;12088;53.078;8.720;2023-03-20T13:21:34;4.43;;;2.53;;
23814;SDS011;12088;53.078;8.720;2023-03-20T13:26:48;3.53;;;1.80;;
23814;SDS011;12088;53.078;8.720;2023-03-20T13:37:07;4.13;;;1.70;;
23814;SDS011;12088;53.078;8.720;2023-03-20T13:39:36;3.03;;;2.73;;
23814;SDS011;12088;53.078;8.720;2023-03-20T13:42:07;3.73;;;2.07;;
23814;SDS011;12088;53.078;8.720;2023-03-20T13:44:34;5.33;;;2.03;;
23814;SDS011;12088;53.078;8.720;2023-03-20T13:47:04;3.57;;;2.43;;
23814;SDS011;12088;53.078;8.720;2023-03-20T13:49:35;7.13;;;2.53;;
23814;SDS011;12088;53.078;8.720;2023-03-20T13:52:09;3.03;;;1.70;;
23814;SDS011;12088;53.078;8.720;2023-03-20T13:54:46;4.77;;;2.47;;
23814;SDS011;12088;53.078;8.720;2023-03-20T13:57:21;4.27;;;2.47;;
23814;SDS011;12088;53.078;8.720;2023-03-20T13:59:58;4.40;;;2.27;;
23814;SDS011;12088;53.078;8.720;2023-03-20T14:02:32;3.63;;;2.20;;
23814;SDS011;12088;53.078;8.720;2023-03-20T14:05:02;3.37;;;2.03;;
23814;SDS011;12088;53.078;8.720;2023-03-20T14:09:55;7.50;;;2.00;;
23814;SDS011;12088;53.078;8.720;2023-03-20T14:12:25;4.83;;;2.37;;
23814;SDS011;12088;53.078;8.720;2023-03-20T14:14:52;3.20;;;2.00;;
23814;SDS011;12088;53.078;8.720;2023-03-20T14:17:20;2.83;;;1.87;;
23814;SDS011;12088;53.078;8.720;2023-03-20T14:19:48;3.20;;;2.43;;
23814;SDS011;12088;53.078;8.720;2023-03-20T14:22:37;2.83;;;1.77;;
23814;SDS011;12088;53.078;8.720;2023-03-20T14:25:04;4.50;;;2.37;;
23814;SDS011;12088;53.078;8.720;2023-03-20T14:27:34;2.43;;;2.10;;
23814;SDS011;12088;53.078;8.720;2023-03-20T14:32:51;4.30;;;1.97;;
23814;SDS011;12088;53.078;8.720;2023-03-20T14:35:24;3.37;;;2.07;;
23814;SDS011;12088;53.078;8.720;2023-03-20T14:40:32;6.30;;;1.63;;
23814;SDS011;12088;53.078;8.720;2023-03-20T14:43:03;4.43;;;1.80;;
23814;SDS011;12088;53.078;8.720;2023-03-20T14:50:52;3.77;;;2.27;;
23814;SDS011;12088;53.078;8.720;2023-03-20T14:53:20;3.10;;;2.20;;
23814;SDS011;12088;53.078;8.720;2023-03-20T14:58:35;2.40;;;1.80;;
23814;SDS011;12088;53.078;8.720;2023-03-20T15:01:02;2.37;;;1.80;;
23814;SDS011;12088;53.078;8.720;2023-03-20T15:03:29;2.13;;;1.93;;
23814;SDS011;12088;53.078;8.720;2023-03-20T15:05:58;2.63;;;1.90;;
23814;SDS011;12088;53.078;8.720;2023-03-20T15:08:31;4.43;;;2.53;;
23814;SDS011;12088;53.078;8.720;2023-03-20T15:10:58;2.67;;;2.00;;
23814;SDS011;12088;53.078;8.720;2023-03-20T15:13:27;6.20;;;2.07;;
23814;SDS011;12088;53.078;8.720;2023-03-20T15:15:56;5.40;;;2.47;;
23814;SDS011;12088;53.078;8.720;2023-03-20T15:18:23;4.40;;;2.23;;
23814;SDS011;12088;53.078;8.720;2023-03-20T15:20:49;3.73;;;2.30;;
23814;SDS011;12088;53.078;8.720;2023-03-20T15:23:15;3.80;;;2.50;;
23814;SDS011;12088;53.078;8.720;2023-03-20T15:25:42;2.83;;;2.20;;
23814;SDS011;12088;53.078;8.720;2023-03-20T15:28:16;3.67;;;2.10;;
23814;SDS011;12088;53.078;8.720;2023-03-20T15:30:44;3.97;;;2.60;;
23814;SDS011;12088;53.078;8.720;2023-03-20T15:33:13;4.60;;;1.87;;
23814;SDS011;12088;53.078;8.720;2023-03-20T15:35:40;2.67;;;2.30;;
23814;SDS011;12088;53.078;8.720;2023-03-20T15:38:07;3.73;;;2.23;;
23814;SDS011;12088;53.078;8.720;2023-03-20T15:40:37;4.33;;;2.30;;
23814;SDS011;12088;53.078;8.720;2023-03-20T15:43:12;2.37;;;2.00;;
23814;SDS011;12088;53.078;8.720;2023-03-20T15:45:39;4.83;;;2.20;;
23814;SDS011;12088;53.078;8.720;2023-03-20T15:50:33;2.80;;;2.00;;
23814;SDS011;12088;53.078;8.720;2023-03-20T15:52:59;5.17;;;3.20;;
23814;SDS011;12088;53.078;8.720;2023-03-20T15:55:26;3.37;;;2.37;;
23814;SDS011;12088;53.078;8.720;2023-03-20T15:57:54;5.17;;;1.77;;
23814;SDS011;12088;53.078;8.720;2023-03-20T16:02:56;4.23;;;2.80;;
23814;SDS011;12088;53.078;8.720;2023-03-20T16:05:24;3.50;;;2.33;;
23814;SDS011;12088;53.078;8.720;2023-03-20T16:07:50;3.50;;;2.17;;
23814;SDS011;12088;53.078;8.720;2023-03-20T16:10:29;2.43;;;2.20;;
23814;SDS011;12088;53.078;8.720;2023-03-20T16:12:56;6.03;;;1.70;;
23814;SDS011;12088;53.078;8.720;2023-03-20T16:15:23;8.53;;;2.53;;
23814;SDS011;12088;53.078;8.720;2023-03-20T16:17:51;3.03;;;2.37;;
23814;SDS011;12088;53.078;8.720;2023-03-20T16:20:18;4.93;;;2.90;;
23814;SDS011;12088;53.078;8.720;2023-03-20T16:22:45;7.43;;;2.27;;
23814;SDS011;12088;53.078;8.720;2023-03-20T16:25:12;2.83;;;2.40;;
23814;SDS011;12088;53.078;8.720;2023-03-20T16:27:39;4.67;;;2.13;;
23814;SDS011;12088;53.078;8.720;2023-03-20T16:30:07;3.53;;;1.90;;
23814;SDS011;12088;53.078;8.720;2023-03-20T16:32:35;6.63;;;2.17;;
23814;SDS011;12088;53.078;8.720;2023-03-20T16:35:02;4.00;;;1.57;;
23814;SDS011;12088;53.078;8.720;2023-03-20T16:38:15;3.20;;;2.17;;
23814;SDS011;12088;53.078;8.720;2023-03-20T16:42:42;7.90;;;2.17;;
23814;SDS011;12088;53.078;8.720;2023-03-20T16:45:22;4.87;;;2.73;;
23814;SDS011;12088;53.078;8.720;2023-03-20T16:47:48;2.50;;;1.57;;
23814;SDS011;12088;53.078;8.720;2023-03-20T16:50:16;4.07;;;1.80;;
23814;SDS011;12088;53.078;8.720;2023-03-20T16:52:47;2.87;;;2.10;;
23814;SDS011;12088;53.078;8.720;2023-03-20T16:55:15;6.97;;;2.03;;
23814;SDS011;12088;53.078;8.720;2023-03-20T16:57:41;2.63;;;1.70;;
23814;SDS011;12088;53.078;8.720;2023-03-20T17:00:20;2.47;;;2.10;;
23814;SDS011;12088;53.078;8.720;2023-03-20T17:02:51;2.67;;;1.93;;
23814;SDS011;12088;53.078;8.720;2023-03-20T17:05:23;2.10;;;1.50;;
23814;SDS011;12088;53.078;8.720;2023-03-20T17:08:01;5.17;;;2.00;;